Time;durP1;ratioP1;P1;durP2;ratioP2;P2;SDS_P1;SDS_P2;PMS_P1;PMS_P2;Temp;Humidity;BMP_temperature;BMP_pressure;BME280_temperature;BME280_humidity;BME280_pressure;Samples;Min_cycle;Max_cycle;Signal;HPM_P1;HPM_P2
2024/01/09 00:00:43;;;;;;;0.70;0.47;;;-3.30;99.90;;;;;;5065435;28;20044;-75
2024/01/09 00:03:09;;;;;;;0.05;0.05;;;-3.30;99.90;;;;;;5066017;28;20038;-74
2024/01/09 00:05:34;;;;;;;0.20;0.20;;;-3.20;99.90;;;;;;5063352;28;20037;-74
2024/01/09 00:08:00;;;;;;;0.40;0.40;;;-3.20;99.90;;;;;;5065031;28;20099;-74
2024/01/09 00:10:26;;;;;;;0.15;0.15;;;-3.20;99.90;;;;;;5068910;28;20041;-75
2024/01/09 00:12:52;;;;;;;0.25;0.25;;;-3.30;99.90;;;;;;5060969;28;20036;-74
2024/01/09 00:15:18;;;;;;;0.20;0.20;;;-3.30;99.90;;;;;;5043445;28;20047;-74
2024/01/09 00:17:43;;;;;;;0.80;0.52;;;-3.30;99.90;;;;;;5062128;28;20041;-74
2024/01/09 00:20:10;;;;;;;0.90;0.70;;;-3.30;99.90;;;;;;5066878;28;20048;-74
2024/01/09 00:22:35;;;;;;;0.10;0.10;;;-3.40;99.90;;;;;;5056892;28;20263;-74
2024/01/09 00:25:01;;;;;;;0.30;0.30;;;-3.40;99.90;;;;;;5057509;28;20052;-73
2024/01/09 00:27:26;;;;;;;0.10;0.10;;;-3.50;99.90;;;;;;5068829;28;20045;-74
2024/01/09 00:29:52;;;;;;;0.20;0.20;;;-3.50;99.90;;;;;;5064716;28;20162;-74
2024/01/09 00:32:18;;;;;;;0.57;0.57;;;-3.50;99.90;;;;;;5063419;28;20032;-73
2024/01/09 00:34:43;;;;;;;0.30;0.30;;;-3.50;99.90;;;;;;5066152;28;20047;-75
2024/01/09 00:37:09;;;;;;;0.80;0.65;;;-3.50;99.90;;;;;;5071355;28;20032;-74
2024/01/09 00:39:34;;;;;;;0.30;0.30;;;-3.60;99.90;;;;;;5097756;28;20535;-74
2024/01/09 00:42:00;;;;;;;0.30;0.30;;;-3.60;99.90;;;;;;5067939;28;20111;-73
2024/01/09 00:44:25;;;;;;;0.35;0.35;;;-3.60;99.90;;;;;;5061289;28;20064;-73
2024/01/09 00:46:51;;;;;;;1.00;0.68;;;-3.70;99.90;;;;;;5087987;28;20039;-73
2024/01/09 00:49:16;;;;;;;0.22;0.22;;;-3.70;99.90;;;;;;5062686;28;20048;-73
2024/01/09 00:51:42;;;;;;;0.20;0.20;;;-3.60;99.90;;;;;;5061568;28;20041;-73
2024/01/09 00:54:08;;;;;;;0.20;0.20;;;-3.70;99.90;;;;;;5061532;28;20037;-73
2024/01/09 00:56:33;;;;;;;0.40;0.40;;;-3.70;99.90;;;;;;5063002;28;20037;-73
2024/01/09 00:58:59;;;;;;;0.30;0.30;;;-3.70;99.90;;;;;;5062688;28;20161;-73
2024/01/09 01:01:24;;;;;;;0.77;0.77;;;-3.80;99.90;;;;;;5065416;28;20050;-74
2024/01/09 01:03:50;;;;;;;0.17;0.17;;;-3.80;99.90;;;;;;5061154;28;20040;-73
2024/01/09 01:06:15;;;;;;;0.32;0.32;;;-3.80;99.90;;;;;;5062386;28;20036;-72
2024/01/09 01:08:41;;;;;;;0.57;0.45;;;-3.80;99.90;;;;;;5063952;28;20036;-72
2024/01/09 01:11:06;;;;;;;0.10;0.10;;;-3.80;99.90;;;;;;5067261;28;20040;-73
2024/01/09 01:13:32;;;;;;;0.20;0.20;;;-3.80;99.90;;;;;;5067445;28;20166;-73
2024/01/09 01:15:58;;;;;;;0.20;0.20;;;-3.80;99.90;;;;;;5052756;28;20037;-73
2024/01/09 01:18:23;;;;;;;0.40;0.40;;;-3.80;99.90;;;;;;5066481;28;20062;-73
2024/01/09 01:20:49;;;;;;;0.85;0.85;;;-3.90;99.90;;;;;;5071661;28;20043;-72
2024/01/09 01:23:14;;;;;;;0.75;0.75;;;-3.90;99.90;;;;;;5070527;28;20043;-73
2024/01/09 01:25:40;;;;;;;0.20;0.20;;;-3.90;99.90;;;;;;5051145;28;20045;-73
2024/01/09 01:28:06;;;;;;;0.35;0.35;;;-3.90;99.90;;;;;;5069172;28;20040;-73
2024/01/09 01:30:31;;;;;;;0.30;0.30;;;-3.90;99.90;;;;;;5069093;28;20070;-72
2024/01/09 01:32:57;;;;;;;0.85;0.80;;;-4.00;99.90;;;;;;5094828;28;20032;-73
2024/01/09 01:35:23;;;;;;;1.67;1.20;;;-4.00;99.90;;;;;;5068207;28;20131;-72
2024/01/09 01:37:48;;;;;;;0.52;0.52;;;-4.00;99.90;;;;;;5066913;28;20092;-72
2024/01/09 01:40:15;;;;;;;0.35;0.35;;;-4.00;99.90;;;;;;5071625;28;20047;-72
2024/01/09 01:42:40;;;;;;;0.32;0.32;;;-4.00;99.90;;;;;;5070066;28;20049;-73
2024/01/09 01:45:15;;;;;;;2.10;0.65;;;-4.10;99.90;;;;;;5069367;28;20037;-72
2024/01/09 01:47:44;;;;;;;1.30;1.20;;;-4.10;99.90;;;;;;5066275;28;20073;-71
2024/01/09 01:50:10;;;;;;;0.30;0.30;;;-4.00;99.90;;;;;;5067997;28;20032;-72
2024/01/09 01:52:36;;;;;;;2.78;1.33;;;-4.10;99.90;;;;;;5066622;28;20039;-72
2024/01/09 01:55:01;;;;;;;0.20;0.20;;;-4.00;99.90;;;;;;5065607;28;20040;-71
2024/01/09 01:57:27;;;;;;;0.82;0.80;;;-4.00;99.90;;;;;;5064302;28;20047;-72
2024/01/09 01:59:53;;;;;;;3.42;1.55;;;-4.10;99.90;;;;;;5065178;28;20044;-71
2024/01/09 02:02:19;;;;;;;0.65;0.65;;;-4.10;99.90;;;;;;5066880;28;20037;-72
2024/01/09 02:04:45;;;;;;;0.40;0.40;;;-4.10;99.90;;;;;;5066945;28;20479;-71
2024/01/09 02:07:10;;;;;;;0.38;0.38;;;-4.10;99.90;;;;;;5067834;28;20044;-71
2024/01/09 02:09:37;;;;;;;0.30;0.30;;;-4.10;99.90;;;;;;5065223;28;20066;-71
2024/01/09 02:12:03;;;;;;;0.20;0.20;;;-4.10;99.90;;;;;;5065694;28;20271;-71
2024/01/09 02:14:29;;;;;;;0.45;0.43;;;-4.10;99.90;;;;;;5068532;28;20119;-72
2024/01/09 02:16:54;;;;;;;0.25;0.20;;;-4.10;99.90;;;;;;5069432;28;20178;-71
2024/01/09 02:19:20;;;;;;;0.28;0.22;;;-4.10;99.90;;;;;;5059272;28;20048;-70
2024/01/09 02:21:50;;;;;;;0.10;0.10;;;-4.10;99.90;;;;;;5067580;28;20434;-71
2024/01/09 02:24:17;;;;;;;0.40;0.40;;;-4.10;99.90;;;;;;5062017;28;20044;-71
2024/01/09 02:26:48;;;;;;;0.55;0.25;;;-4.10;99.90;;;;;;5094682;28;20411;-70
2024/01/09 02:29:19;;;;;;;10.63;0.90;;;-4.20;99.90;;;;;;5060676;28;20111;-71
2024/01/09 02:31:45;;;;;;;2.30;0.65;;;-4.10;99.90;;;;;;5073208;28;20484;-71
2024/01/09 02:34:12;;;;;;;0.20;0.20;;;-4.20;99.90;;;;;;5067742;28;20047;-71
2024/01/09 02:36:38;;;;;;;1.35;0.68;;;-4.20;99.90;;;;;;5050768;28;20071;-70
2024/01/09 02:39:03;;;;;;;0.38;0.38;;;-4.20;99.90;;;;;;5068991;28;20094;-71
2024/01/09 02:41:33;;;;;;;0.13;0.13;;;-4.20;99.90;;;;;;5067069;28;20739;-71
2024/01/09 02:43:59;;;;;;;0.13;0.13;;;-4.20;99.90;;;;;;5066807;28;20111;-71
2024/01/09 02:46:24;;;;;;;0.28;0.28;;;-4.20;99.90;;;;;;5071510;28;20127;-70
2024/01/09 02:48:50;;;;;;;0.17;0.17;;;-4.20;99.90;;;;;;5067423;28;20116;-71
2024/01/09 02:51:15;;;;;;;2.92;1.10;;;-4.20;99.90;;;;;;5072388;28;20066;-71
2024/01/09 02:53:41;;;;;;;0.52;0.45;;;-4.30;99.90;;;;;;5050685;28;20076;-70
2024/01/09 02:56:06;;;;;;;0.10;0.10;;;-4.30;99.90;;;;;;5066738;28;20411;-71
2024/01/09 02:58:33;;;;;;;1.15;1.15;;;-4.20;99.90;;;;;;5089785;28;20527;-71
2024/01/09 03:01:01;;;;;;;0.63;0.63;;;-4.30;99.90;;;;;;5069956;28;20028;-72
2024/01/09 03:03:26;;;;;;;0.30;0.30;;;-4.30;99.90;;;;;;5067913;28;20052;-70
2024/01/09 03:05:52;;;;;;;0.43;0.43;;;-4.30;99.90;;;;;;5066171;28;20107;-71
2024/01/09 03:08:17;;;;;;;0.43;0.43;;;-4.30;99.90;;;;;;5065077;28;20463;-70
2024/01/09 03:10:43;;;;;;;1.52;0.43;;;-4.30;99.90;;;;;;5073862;28;20505;-70
2024/01/09 03:13:08;;;;;;;0.20;0.20;;;-4.30;99.90;;;;;;5062193;28;20491;-70
2024/01/09 03:15:34;;;;;;;0.10;0.10;;;-4.40;99.90;;;;;;5067610;28;20067;-69
2024/01/09 03:18:03;;;;;;;0.10;0.10;;;-4.40;99.90;;;;;;5045904;28;20035;-71
2024/01/09 03:20:28;;;;;;;0.65;0.50;;;-4.40;99.90;;;;;;5051950;28;20127;-70
2024/01/09 03:22:54;;;;;;;0.10;0.10;;;-4.40;99.90;;;;;;5065830;28;20127;-70
2024/01/09 03:25:20;;;;;;;0.30;0.30;;;-4.40;99.90;;;;;;5091930;28;20028;-70
2024/01/09 03:27:45;;;;;;;0.52;0.52;;;-4.40;99.90;;;;;;5070276;28;20044;-71
2024/01/09 03:30:11;;;;;;;2.08;1.48;;;-4.40;99.90;;;;;;5066332;28;20041;-70
2024/01/09 03:32:36;;;;;;;0.10;0.10;;;-4.40;99.90;;;;;;5070479;28;20475;-69
2024/01/09 03:35:02;;;;;;;8.25;1.50;;;-4.40;99.90;;;;;;5070003;28;20446;-69
2024/01/09 03:37:28;;;;;;;1.20;0.70;;;-4.40;99.90;;;;;;5059528;28;20044;-70
2024/01/09 03:39:53;;;;;;;0.88;0.85;;;-4.50;99.90;;;;;;5061402;28;20041;-70
2024/01/09 03:42:19;;;;;;;3.83;1.02;;;-4.50;99.90;;;;;;5067537;28;20040;-70
2024/01/09 03:44:45;;;;;;;0.55;0.55;;;-4.50;99.90;;;;;;5087116;27;20118;-70
2024/01/09 03:47:10;;;;;;;0.10;0.10;;;-4.50;99.90;;;;;;5051124;28;20036;-69
2024/01/09 03:49:36;;;;;;;0.30;0.30;;;-4.50;99.90;;;;;;5065002;28;20029;-70
2024/01/09 03:52:03;;;;;;;0.10;0.10;;;-4.50;99.90;;;;;;5070988;28;20036;-71
2024/01/09 03:54:28;;;;;;;5.00;0.98;;;-4.50;99.90;;;;;;5066847;28;20082;-70
2024/01/09 03:56:54;;;;;;;0.20;0.20;;;-4.50;99.90;;;;;;5068879;28;20449;-71
2024/01/09 03:59:19;;;;;;;4.28;1.65;;;-4.50;99.90;;;;;;5065565;28;20814;-69
2024/01/09 04:01:45;;;;;;;0.88;0.88;;;-4.50;99.90;;;;;;5058042;28;20119;-70
2024/01/09 04:04:11;;;;;;;0.10;0.10;;;-4.50;99.90;;;;;;5048695;28;20502;-69
2024/01/09 04:06:43;;;;;;;0.50;0.47;;;-4.50;99.90;;;;;;5064203;28;20033;-70
2024/01/09 04:09:10;;;;;;;0.28;0.28;;;-4.50;99.90;;;;;;5065377;28;20482;-70
2024/01/09 04:11:42;;;;;;;0.20;0.20;;;-4.50;99.90;;;;;;5063732;28;20427;-69
2024/01/09 04:14:08;;;;;;;0.43;0.43;;;-4.50;99.90;;;;;;5065944;28;20040;-70
2024/01/09 04:16:34;;;;;;;0.65;0.65;;;-4.60;99.90;;;;;;5068814;28;20036;-69
2024/01/09 04:18:59;;;;;;;0.30;0.30;;;-4.60;99.90;;;;;;5062530;28;20463;-70
2024/01/09 04:21:25;;;;;;;0.10;0.10;;;-4.60;99.90;;;;;;5063867;28;20086;-70
2024/01/09 04:23:50;;;;;;;41.10;1.65;;;-4.60;99.90;;;;;;5068115;28;20467;-70
2024/01/09 04:26:16;;;;;;;0.47;0.47;;;-4.50;99.90;;;;;;5061251;28;20048;-69
2024/01/09 04:28:41;;;;;;;0.20;0.20;;;-4.60;99.90;;;;;;5065153;28;20037;-69
2024/01/09 04:31:07;;;;;;;0.95;0.95;;;-4.60;99.90;;;;;;5048050;28;20086;-69
2024/01/09 04:33:33;;;;;;;0.43;0.43;;;-4.60;99.90;;;;;;5064129;28;20103;-69
2024/01/09 04:35:58;;;;;;;0.20;0.20;;;-4.60;99.90;;;;;;5063224;28;20123;-71
2024/01/09 04:38:24;;;;;;;0.98;0.88;;;-4.70;99.90;;;;;;5089675;28;20278;-70
2024/01/09 04:40:49;;;;;;;0.30;0.30;;;-4.70;99.90;;;;;;5064684;28;20119;-71
2024/01/09 04:43:15;;;;;;;1.45;1.25;;;-4.60;99.90;;;;;;5067387;28;20048;-70
2024/01/09 04:45:40;;;;;;;6.80;0.75;;;-4.60;99.90;;;;;;5074525;28;20513;-69
2024/01/09 04:48:08;;;;;;;0.40;0.40;;;-4.60;99.90;;;;;;5073270;28;20040;-70
2024/01/09 04:50:33;;;;;;;1.38;0.55;;;-4.70;99.90;;;;;;5069836;28;20068;-69
2024/01/09 04:52:59;;;;;;;0.15;0.15;;;-4.70;99.90;;;;;;5052027;28;20483;-70
2024/01/09 04:55:24;;;;;;;0.10;0.10;;;-4.70;99.90;;;;;;5071023;28;20040;-69
2024/01/09 04:57:50;;;;;;;0.10;0.10;;;-4.70;99.90;;;;;;5068448;28;20147;-71
2024/01/09 05:00:18;;;;;;;1.25;0.55;;;-4.60;99.90;;;;;;5069927;28;20036;-70
2024/01/09 05:02:44;;;;;;;0.40;0.40;;;-4.70;99.90;;;;;;5065355;28;20079;-70
2024/01/09 05:05:10;;;;;;;1.02;0.80;;;-4.70;99.90;;;;;;5067708;28;20072;-70
2024/01/09 05:07:35;;;;;;;0.63;0.63;;;-4.70;99.90;;;;;;5064093;28;20127;-69
2024/01/09 05:10:01;;;;;;;0.10;0.10;;;-4.60;99.90;;;;;;5068451;28;20123;-71
2024/01/09 05:12:26;;;;;;;0.35;0.35;;;-4.70;99.90;;;;;;5067398;28;20036;-70
2024/01/09 05:14:53;;;;;;;0.10;0.10;;;-4.70;99.90;;;;;;5065780;28;20037;-70
2024/01/09 05:17:19;;;;;;;0.47;0.47;;;-4.70;99.90;;;;;;5066790;28;20055;-73
2024/01/09 05:19:44;;;;;;;1.65;0.57;;;-4.70;99.90;;;;;;5065948;28;20052;-69
2024/01/09 05:22:10;;;;;;;0.13;0.13;;;-4.70;99.90;;;;;;5071107;28;20046;-69
2024/01/09 05:24:35;;;;;;;0.50;0.50;;;-4.70;99.90;;;;;;5051460;28;20051;-69
2024/01/09 05:27:01;;;;;;;0.30;0.30;;;-4.70;99.90;;;;;;5065332;28;20068;-69
2024/01/09 05:29:26;;;;;;;0.68;0.40;;;-4.70;99.90;;;;;;5070277;28;20067;-70
2024/01/09 05:31:52;;;;;;;0.20;0.20;;;-4.80;99.90;;;;;;5070809;28;20032;-70
2024/01/09 05:34:17;;;;;;;1.50;0.95;;;-4.80;99.90;;;;;;5069537;28;20098;-69
2024/01/09 05:36:43;;;;;;;0.52;0.30;;;-4.80;99.90;;;;;;5072259;28;20048;-69
2024/01/09 05:39:09;;;;;;;0.20;0.20;;;-4.90;99.90;;;;;;5068914;28;20040;-70
2024/01/09 05:41:35;;;;;;;0.10;0.10;;;-4.90;99.90;;;;;;5068707;28;20048;-69
2024/01/09 05:44:00;;;;;;;0.40;0.40;;;-4.90;99.90;;;;;;5071638;28;20121;-70
2024/01/09 05:46:26;;;;;;;0.30;0.30;;;-4.90;99.90;;;;;;5066148;28;20033;-70
2024/01/09 05:48:52;;;;;;;0.20;0.20;;;-5.00;99.90;;;;;;5065391;28;20123;-70
2024/01/09 05:51:18;;;;;;;0.10;0.10;;;-5.00;99.90;;;;;;5088983;28;20393;-69
2024/01/09 05:53:44;;;;;;;0.50;0.50;;;-5.00;99.90;;;;;;5093942;28;20183;-70
2024/01/09 05:56:10;;;;;;;0.63;0.30;;;-5.00;99.90;;;;;;5068739;28;20042;-69
2024/01/09 05:58:35;;;;;;;0.85;0.32;;;-5.00;99.90;;;;;;5066842;28;20048;-70
2024/01/09 06:01:01;;;;;;;0.20;0.20;;;-5.10;99.90;;;;;;5071899;28;20065;-69
2024/01/09 06:03:26;;;;;;;0.30;0.30;;;-5.10;99.90;;;;;;5064053;28;20043;-70
2024/01/09 06:05:52;;;;;;;0.20;0.20;;;-5.10;99.90;;;;;;5071058;28;20041;-70
2024/01/09 06:08:18;;;;;;;0.20;0.20;;;-5.10;99.90;;;;;;5090563;28;20060;-69
2024/01/09 06:10:43;;;;;;;0.22;0.22;;;-5.10;99.90;;;;;;5069341;28;20029;-70
2024/01/09 06:13:09;;;;;;;0.10;0.10;;;-5.10;99.90;;;;;;5065880;28;20036;-70
2024/01/09 06:15:35;;;;;;;0.43;0.43;;;-5.10;99.90;;;;;;5089644;28;20124;-71
2024/01/09 06:18:00;;;;;;;3.20;1.05;;;-5.20;99.90;;;;;;5068815;28;20032;-70
2024/01/09 06:20:26;;;;;;;0.32;0.32;;;-5.20;99.90;;;;;;5064732;28;20037;-71
2024/01/09 06:22:52;;;;;;;0.10;0.10;;;-5.20;99.90;;;;;;5065126;28;20102;-70
2024/01/09 06:25:18;;;;;;;0.82;0.82;;;-5.20;99.90;;;;;;5065926;28;20040;-70
2024/01/09 06:27:43;;;;;;;0.38;0.35;;;-5.20;99.90;;;;;;5065364;28;20048;-70
2024/01/09 06:30:09;;;;;;;0.20;0.20;;;-5.20;99.90;;;;;;5063304;28;20055;-70
2024/01/09 06:32:34;;;;;;;0.10;0.10;;;-5.20;99.90;;;;;;5067619;28;20037;-70
2024/01/09 06:35:00;;;;;;;1.55;0.73;;;-5.20;99.90;;;;;;5068763;28;20024;-71
2024/01/09 06:37:26;;;;;;;0.32;0.30;;;-5.20;99.90;;;;;;5069103;28;20082;-70
2024/01/09 06:39:52;;;;;;;0.25;0.25;;;-5.20;99.90;;;;;;5051580;28;20141;-69
2024/01/09 06:42:18;;;;;;;0.10;0.10;;;-5.20;99.90;;;;;;5065630;28;20166;-71
2024/01/09 06:44:43;;;;;;;0.93;0.93;;;-5.30;99.90;;;;;;5069558;28;20502;-70
2024/01/09 06:47:09;;;;;;;0.10;0.10;;;-5.30;99.90;;;;;;5065595;28;20404;-71
2024/01/09 06:49:34;;;;;;;0.52;0.52;;;-5.30;99.90;;;;;;5069752;28;20426;-70
2024/01/09 06:52:00;;;;;;;0.30;0.30;;;-5.30;99.90;;;;;;5067389;28;20496;-69
2024/01/09 06:54:25;;;;;;;1.77;1.20;;;-5.30;99.90;;;;;;5065107;28;20052;-71
2024/01/09 06:56:51;;;;;;;1.75;1.00;;;-5.30;99.90;;;;;;5074838;28;20507;-70
2024/01/09 06:59:16;;;;;;;0.40;0.40;;;-5.30;99.90;;;;;;5067197;28;20075;-70
2024/01/09 07:01:42;;;;;;;3.38;0.70;;;-5.30;99.90;;;;;;5062007;28;20052;-70
2024/01/09 07:04:08;;;;;;;0.10;0.10;;;-5.40;99.90;;;;;;5065940;28;20048;-71
2024/01/09 07:06:35;;;;;;;0.88;0.88;;;-5.40;99.90;;;;;;5062421;28;20040;-71
2024/01/09 07:09:00;;;;;;;7.03;0.43;;;-5.40;99.90;;;;;;5050440;28;20040;-71
2024/01/09 07:11:26;;;;;;;0.10;0.10;;;-5.40;99.90;;;;;;5063435;28;20048;-71
2024/01/09 07:13:51;;;;;;;1.45;0.95;;;-5.40;99.90;;;;;;5066314;28;20410;-69
2024/01/09 07:16:17;;;;;;;0.50;0.50;;;-5.40;99.90;;;;;;5067728;28;20040;-72
2024/01/09 07:18:42;;;;;;;0.98;0.73;;;-5.40;99.90;;;;;;5062988;28;20096;-70
2024/01/09 07:21:08;;;;;;;0.10;0.10;;;-5.40;99.90;;;;;;5066761;28;20044;-71
2024/01/09 07:23:34;;;;;;;0.20;0.20;;;-5.40;99.90;;;;;;5066414;28;20045;-71
2024/01/09 07:26:00;;;;;;;0.52;0.45;;;-5.40;99.90;;;;;;5054124;28;20044;-71
2024/01/09 07:28:26;;;;;;;0.35;0.35;;;-5.40;99.90;;;;;;5084150;28;20119;-71
2024/01/09 07:30:52;;;;;;;0.10;0.10;;;-5.40;99.90;;;;;;5058588;28;20119;-70
2024/01/09 07:33:18;;;;;;;0.88;0.80;;;-5.40;99.90;;;;;;5086267;28;20399;-70
2024/01/09 07:35:44;;;;;;;0.10;0.10;;;-5.40;99.90;;;;;;5057825;28;20047;-72
2024/01/09 07:38:09;;;;;;;0.15;0.15;;;-5.40;99.90;;;;;;5056363;28;20041;-71
2024/01/09 07:40:35;;;;;;;0.10;0.10;;;-5.40;99.90;;;;;;5069419;28;20067;-72
2024/01/09 07:43:00;;;;;;;0.40;0.40;;;-5.40;99.90;;;;;;5065565;28;20033;-72
2024/01/09 07:45:29;;;;;;;0.30;0.30;;;-5.40;99.90;;;;;;5067562;28;20044;-71
2024/01/09 07:47:59;;;;;;;0.75;0.75;;;-5.40;99.90;;;;;;5063900;28;20063;-71
2024/01/09 07:50:25;;;;;;;0.40;0.40;;;-5.50;99.90;;;;;;5074943;28;20062;-72
2024/01/09 07:52:51;;;;;;;0.63;0.52;;;-5.40;99.90;;;;;;5060119;28;20036;-72
2024/01/09 07:55:16;;;;;;;0.30;0.30;;;-5.50;99.90;;;;;;5066684;28;20498;-72
2024/01/09 07:57:42;;;;;;;1.40;0.63;;;-5.40;99.90;;;;;;5058890;28;20040;-71
2024/01/09 08:00:08;;;;;;;5.38;1.60;;;-5.40;99.90;;;;;;5067521;28;20143;-72
2024/01/09 08:02:34;;;;;;;0.28;0.28;;;-5.40;99.90;;;;;;5065023;28;20094;-72
2024/01/09 08:04:59;;;;;;;2.22;0.50;;;-5.50;99.90;;;;;;5058640;28;20050;-72
2024/01/09 08:07:25;;;;;;;0.95;0.88;;;-5.40;99.90;;;;;;5059453;28;20071;-72
2024/01/09 08:09:52;;;;;;;0.20;0.20;;;-5.50;99.90;;;;;;5045384;28;20066;-72
2024/01/09 08:12:18;;;;;;;1.38;0.77;;;-5.40;99.90;;;;;;5043554;28;20040;-72
2024/01/09 08:14:47;;;;;;;0.43;0.43;;;-5.40;99.90;;;;;;5060609;28;20043;-72
2024/01/09 08:17:12;;;;;;;1.15;1.05;;;-5.40;99.90;;;;;;5063026;28;20040;-72
2024/01/09 08:19:38;;;;;;;0.10;0.10;;;-5.40;99.90;;;;;;5080064;28;20055;-72
2024/01/09 08:22:04;;;;;;;0.25;0.25;;;-5.30;99.90;;;;;;5069195;28;20033;-72
2024/01/09 08:24:29;;;;;;;0.20;0.20;;;-5.40;99.90;;;;;;5064560;28;20487;-72
2024/01/09 08:26:55;;;;;;;0.80;0.75;;;-5.30;99.90;;;;;;5068637;28;20127;-73
2024/01/09 08:29:22;;;;;;;2.92;1.67;;;-5.30;99.90;;;;;;5056770;28;20233;-72
2024/01/09 08:32:06;;;;;;;0.30;0.30;;;-5.30;99.90;;;;;;5065781;28;20036;-72
2024/01/09 08:34:31;;;;;;;0.47;0.47;;;-5.30;99.90;;;;;;5066341;28;20119;-72
2024/01/09 08:36:57;;;;;;;1.27;0.82;;;-5.30;99.90;;;;;;5067556;28;20115;-73
2024/01/09 08:39:22;;;;;;;0.40;0.40;;;-5.30;99.90;;;;;;5066531;28;20127;-73
2024/01/09 08:41:48;;;;;;;0.22;0.22;;;-5.20;99.90;;;;;;5077200;28;20128;-72
2024/01/09 08:44:13;;;;;;;0.57;0.57;;;-5.10;99.90;;;;;;5065580;28;20039;-75
2024/01/09 08:46:39;;;;;;;0.60;0.60;;;-5.10;99.90;;;;;;5086668;28;20033;-73
2024/01/09 08:49:05;;;;;;;1.55;1.17;;;-5.10;99.90;;;;;;5066600;28;20395;-75
2024/01/09 08:51:31;;;;;;;0.30;0.30;;;-5.10;99.90;;;;;;5069746;28;20426;-71
2024/01/09 08:53:56;;;;;;;0.38;0.38;;;-5.00;99.90;;;;;;5095112;28;20119;-70
2024/01/09 08:56:22;;;;;;;0.22;0.22;;;-4.90;99.90;;;;;;5054781;28;20049;-71
2024/01/09 08:58:47;;;;;;;0.50;0.50;;;-4.90;99.90;;;;;;5066473;28;20047;-70
2024/01/09 09:01:17;;;;;;;0.10;0.10;;;-4.80;99.90;;;;;;5070298;28;20371;-68
2024/01/09 09:03:43;;;;;;;0.17;0.17;;;-4.80;99.90;;;;;;5061896;28;20045;-67
2024/01/09 09:06:08;;;;;;;0.40;0.40;;;-4.70;99.90;;;;;;5062976;28;20036;-69
2024/01/09 09:08:34;;;;;;;1.33;1.23;;;-4.70;99.90;;;;;;5049525;28;20071;-69
2024/01/09 09:11:00;;;;;;;0.10;0.10;;;-4.60;99.90;;;;;;5077902;28;20036;-67
2024/01/09 09:13:25;;;;;;;0.50;0.50;;;-4.60;99.90;;;;;;5063772;28;20093;-68
2024/01/09 09:15:51;;;;;;;0.32;0.32;;;-4.60;99.90;;;;;;5053050;28;20077;-68
2024/01/09 09:18:17;;;;;;;0.77;0.77;;;-4.50;99.90;;;;;;5084453;28;20075;-68
2024/01/09 09:20:43;;;;;;;0.30;0.30;;;-4.50;99.90;;;;;;5065890;28;20036;-68
2024/01/09 09:23:08;;;;;;;0.73;0.68;;;-4.40;99.90;;;;;;5054655;28;20431;-68
2024/01/09 09:25:34;;;;;;;0.35;0.35;;;-4.40;99.90;;;;;;5057075;28;20033;-68
2024/01/09 09:27:59;;;;;;;0.13;0.13;;;-4.30;99.90;;;;;;5053193;28;20060;-68
2024/01/09 09:30:26;;;;;;;1.55;0.95;;;-4.30;99.90;;;;;;5069600;28;20037;-68
2024/01/09 09:32:52;;;;;;;0.28;0.28;;;-4.20;99.90;;;;;;5058698;28;20044;-68
2024/01/09 09:35:18;;;;;;;0.22;0.22;;;-4.20;99.90;;;;;;5067086;28;20127;-68
2024/01/09 09:37:44;;;;;;;0.43;0.40;;;-4.10;99.90;;;;;;5062544;28;20071;-68
2024/01/09 09:40:12;;;;;;;0.45;0.35;;;-4.10;99.90;;;;;;5060489;28;20048;-68
2024/01/09 09:42:38;;;;;;;0.80;0.80;;;-4.00;99.90;;;;;;5068954;28;20082;-68
2024/01/09 09:45:10;;;;;;;0.40;0.40;;;-4.00;99.90;;;;;;5086599;28;20045;-68
2024/01/09 09:47:36;;;;;;;0.25;0.25;;;-3.90;99.90;;;;;;5074739;28;20040;-68
2024/01/09 09:50:01;;;;;;;2.28;0.60;;;-3.90;99.90;;;;;;5067951;28;20479;-68
2024/01/09 09:52:29;;;;;;;0.40;0.40;;;-3.80;99.90;;;;;;5073380;28;20082;-68
2024/01/09 09:54:56;;;;;;;0.10;0.10;;;-3.80;99.90;;;;;;5060933;28;20054;-68
2024/01/09 09:57:22;;;;;;;0.20;0.20;;;-3.70;99.90;;;;;;5067835;28;20044;-68
2024/01/09 09:59:47;;;;;;;0.52;0.52;;;-3.70;99.90;;;;;;5057649;28;20040;-68
2024/01/09 10:02:22;;;;;;;0.30;0.30;;;-3.60;99.90;;;;;;5063577;28;20048;-69
2024/01/09 10:04:49;;;;;;;0.20;0.20;;;-3.60;99.90;;;;;;5064315;28;20044;-68
2024/01/09 10:07:24;;;;;;;0.75;0.75;;;-3.50;99.90;;;;;;5053784;28;20041;-68
2024/01/09 10:09:52;;;;;;;0.10;0.10;;;-3.40;99.90;;;;;;5060515;28;20375;-68
2024/01/09 10:12:24;;;;;;;0.30;0.30;;;-3.40;99.90;;;;;;5071713;28;20043;-68
2024/01/09 10:15:07;;;;;;;0.17;0.17;;;-3.40;99.90;;;;;;5056474;28;20542;-69
2024/01/09 10:17:37;;;;;;;1.45;0.82;;;-3.30;99.90;;;;;;5050332;28;20052;-68
2024/01/09 10:20:04;;;;;;;0.52;0.52;;;-3.30;99.90;;;;;;5065706;28;20281;-69
2024/01/09 10:22:35;;;;;;;0.10;0.10;;;-3.20;99.90;;;;;;5050648;28;20041;-70
2024/01/09 10:25:12;;;;;;;0.13;0.13;;;-3.20;99.90;;;;;;5089015;28;20075;-68
2024/01/09 10:27:39;;;;;;;0.17;0.17;;;-3.20;99.90;;;;;;5070528;28;20095;-68
2024/01/09 10:30:09;;;;;;;0.30;0.30;;;-3.10;99.90;;;;;;5091234;28;20040;-68
2024/01/09 10:32:36;;;;;;;0.68;0.68;;;-3.10;99.90;;;;;;5065992;28;20115;-69
2024/01/09 10:35:07;;;;;;;0.40;0.40;;;-3.00;99.90;;;;;;5052455;28;20029;-68
2024/01/09 10:37:36;;;;;;;0.40;0.40;;;-3.00;99.90;;;;;;5049986;28;20052;-68
2024/01/09 10:40:04;;;;;;;0.30;0.30;;;-2.90;99.90;;;;;;5051827;28;20127;-69
2024/01/09 10:42:30;;;;;;;0.60;0.57;;;-2.90;99.90;;;;;;5057435;28;20438;-69
2024/01/09 10:44:59;;;;;;;0.80;0.80;;;-2.80;99.90;;;;;;5064854;28;20044;-68
2024/01/09 10:47:27;;;;;;;0.25;0.25;;;-2.80;99.90;;;;;;5050898;28;20368;-70
2024/01/09 10:49:54;;;;;;;1.25;0.80;;;-2.70;99.90;;;;;;5063152;28;20086;-69
2024/01/09 10:52:20;;;;;;;1.02;1.02;;;-2.70;99.90;;;;;;5060745;28;20041;-68
2024/01/09 10:54:46;;;;;;;0.35;0.35;;;-2.70;99.90;;;;;;5051153;28;20041;-68
2024/01/09 10:57:16;;;;;;;0.28;0.28;;;-2.60;99.90;;;;;;5058255;28;20483;-69
2024/01/09 10:59:43;;;;;;;0.10;0.10;;;-2.60;99.90;;;;;;5063838;28;20076;-69
2024/01/09 11:02:32;;;;;;;0.60;0.55;;;-2.50;99.90;;;;;;5068857;28;20590;-69
2024/01/09 11:04:58;;;;;;;0.10;0.10;;;-2.50;99.90;;;;;;5044327;28;20056;-68
2024/01/09 11:07:24;;;;;;;0.45;0.45;;;-2.50;99.90;;;;;;5065829;28;20427;-69
2024/01/09 11:09:50;;;;;;;0.40;0.40;;;-2.40;99.90;;;;;;5062904;28;20036;-70
2024/01/09 11:12:33;;;;;;;0.50;0.50;;;-2.40;99.90;;;;;;5067810;28;20695;-68
2024/01/09 11:15:10;;;;;;;0.10;0.10;;;-2.30;99.90;;;;;;5058373;28;20139;-67
2024/01/09 11:17:38;;;;;;;0.20;0.20;;;-2.30;99.90;;;;;;5066870;28;20048;-69
2024/01/09 11:20:06;;;;;;;5.47;3.22;;;-2.20;99.90;;;;;;5060035;28;20041;-69
2024/01/09 11:22:36;;;;;;;0.25;0.13;;;-2.20;99.90;;;;;;5091274;28;20438;-68
2024/01/09 11:25:10;;;;;;;0.40;0.35;;;-2.20;99.90;;;;;;5057713;28;20050;-69
2024/01/09 11:27:42;;;;;;;1.08;0.50;;;-2.10;99.90;;;;;;5049378;28;20048;-69
2024/01/09 11:30:10;;;;;;;0.30;0.30;;;-2.10;99.90;;;;;;5069631;28;20039;-68
2024/01/09 11:32:37;;;;;;;0.85;0.85;;;-2.00;99.90;;;;;;5051321;28;20040;-71
2024/01/09 11:35:17;;;;;;;0.10;0.10;;;-2.00;99.90;;;;;;5053534;28;20522;-70
2024/01/09 11:37:51;;;;;;;0.55;0.45;;;-1.90;99.90;;;;;;5062222;28;20040;-68
2024/01/09 11:40:19;;;;;;;0.45;0.45;;;-1.90;99.90;;;;;;5050764;28;20049;-69
2024/01/09 11:42:45;;;;;;;0.40;0.40;;;-1.80;99.90;;;;;;5063680;28;20052;-70
2024/01/09 11:45:12;;;;;;;0.10;0.10;;;-1.80;99.90;;;;;;5061490;28;20054;-68
2024/01/09 11:47:42;;;;;;;0.10;0.10;;;-1.80;99.90;;;;;;5066961;28;20502;-69
2024/01/09 11:50:10;;;;;;;0.35;0.35;;;-1.80;99.90;;;;;;5086696;28;20059;-68
2024/01/09 11:52:36;;;;;;;1.10;1.02;;;-1.70;99.90;;;;;;5055813;28;20388;-68
2024/01/09 11:55:07;;;;;;;0.20;0.20;;;-1.70;99.90;;;;;;5055660;28;20044;-70
2024/01/09 11:57:35;;;;;;;0.55;0.47;;;-1.70;99.90;;;;;;5056543;28;20482;-70
2024/01/09 12:00:04;;;;;;;0.38;0.30;;;-1.60;99.90;;;;;;5054145;28;20491;-68
2024/01/09 12:02:31;;;;;;;0.52;0.52;;;-1.60;99.90;;;;;;5049019;28;20044;-67
2024/01/09 12:04:57;;;;;;;1.73;0.95;;;-1.60;99.90;;;;;;5060031;28;20120;-66
2024/01/09 12:07:22;;;;;;;0.10;0.10;;;-1.50;99.90;;;;;;5062332;28;20037;-66
2024/01/09 12:09:49;;;;;;;0.10;0.10;;;-1.50;99.90;;;;;;5059150;28;20051;-65
2024/01/09 12:12:21;;;;;;;1.33;0.65;;;-1.50;99.90;;;;;;5076892;28;20040;-66
2024/01/09 12:14:50;;;;;;;;;;;-1.50;99.90;;;;;;5057490;28;20047;-66
2024/01/09 12:17:24;;;;;;;0.10;0.10;;;-1.40;99.90;;;;;;5063179;28;19989;-66
2024/01/09 12:19:53;;;;;;;2.67;0.55;;;-1.40;99.90;;;;;;5060394;28;20055;-65
2024/01/09 12:22:22;;;;;;;1.60;1.25;;;-1.40;99.90;;;;;;5053893;28;20450;-66
2024/01/09 12:24:52;;;;;;;0.00;0.00;;;-1.30;99.90;;;;;;5090937;28;20050;-66
2024/01/09 12:27:20;;;;;;;0.75;0.40;;;-1.30;99.90;;;;;;5066940;28;20037;-66
2024/01/09 12:29:45;;;;;;;0.10;0.10;;;-1.30;99.90;;;;;;5058272;28;20041;-66
2024/01/09 12:32:12;;;;;;;0.95;0.50;;;-1.30;99.90;;;;;;5059286;28;20033;-65
2024/01/09 12:34:39;;;;;;;0.40;0.40;;;-1.30;99.90;;;;;;5060860;28;20068;-65
2024/01/09 12:37:08;;;;;;;0.40;0.40;;;-1.20;99.90;;;;;;5068921;28;20348;-66
2024/01/09 12:39:39;;;;;;;0.30;0.30;;;-1.20;99.90;;;;;;5052612;28;20052;-65
2024/01/09 12:42:16;;;;;;;0.20;0.20;;;-1.20;99.90;;;;;;5064935;28;20041;-66
2024/01/09 12:44:42;;;;;;;0.65;0.65;;;-1.20;99.90;;;;;;5085053;28;20348;-65